Time;durP1;ratioP1;P1;durP2;ratioP2;P2;SDS_P1;SDS_P2;PMS_P1;PMS_P2;Temp;Humidity;BMP_temperature;BMP_pressure;BME280_temperature;BME280_humidity;BME280_pressure;Samples;Min_cycle;Max_cycle;Signal;HPM_P1;HPM_P2
2022/07/10 00:01:01;;;;;;;7.53;6.20;;;;;;;;;;5051919;28;20032;-82
2022/07/10 00:03:27;;;;;;;6.63;5.90;;;;;;;;;;5049655;28;20021;-82
2022/07/10 00:05:53;;;;;;;9.63;5.68;;;;;;;;;;5050318;28;20104;-82
2022/07/10 00:08:18;;;;;;;6.43;5.60;;;;;;;;;;5014494;28;20468;-82
2022/07/10 00:10:44;;;;;;;8.05;5.75;;;;;;;;;;5044338;28;20117;-82
2022/07/10 00:13:09;;;;;;;6.85;5.50;;;;;;;;;;5049931;28;20041;-82
2022/07/10 00:15:35;;;;;;;7.75;5.70;;;;;;;;;;5040057;28;20026;-82
2022/07/10 00:18:00;;;;;;;8.23;5.03;;;;;;;;;;5052331;28;20044;-82
2022/07/10 00:20:26;;;;;;;6.30;5.03;;;;;;;;;;5034075;28;20021;-83
2022/07/10 00:22:51;;;;;;;5.78;4.60;;;;;;;;;;5031866;28;20049;-82
2022/07/10 00:25:17;;;;;;;7.20;4.95;;;;;;;;;;5032396;28;20029;-82
2022/07/10 00:27:42;;;;;;;7.95;4.70;;;;;;;;;;5045675;28;20033;-82
2022/07/10 00:30:11;;;;;;;5.30;4.40;;;;;;;;;;5031453;28;20061;-82
2022/07/10 00:32:37;;;;;;;6.63;4.65;;;;;;;;;;5051602;28;20036;-82
2022/07/10 00:35:02;;;;;;;5.97;4.60;;;;;;;;;;5050854;28;20025;-82
2022/07/10 00:37:28;;;;;;;6.47;4.60;;;;;;;;;;5051945;28;20025;-82
2022/07/10 00:39:54;;;;;;;6.55;4.72;;;;;;;;;;5052167;28;20021;-82
2022/07/10 00:42:19;;;;;;;5.20;4.57;;;;;;;;;;5050702;28;20037;-82
2022/07/10 00:44:44;;;;;;;5.28;4.10;;;;;;;;;;5051803;28;20029;-82
2022/07/10 00:47:10;;;;;;;5.88;4.22;;;;;;;;;;5052119;28;20071;-82
2022/07/10 00:49:37;;;;;;;4.90;4.40;;;;;;;;;;5052322;28;20037;-82
2022/07/10 00:52:03;;;;;;;6.60;4.22;;;;;;;;;;5032896;28;20115;-83
2022/07/10 00:54:29;;;;;;;6.15;4.15;;;;;;;;;;5044994;28;20024;-81
2022/07/10 00:56:55;;;;;;;5.70;4.03;;;;;;;;;;5049905;28;20151;-82
2022/07/10 00:59:20;;;;;;;5.93;4.20;;;;;;;;;;5034134;28;20380;-82
2022/07/10 01:01:46;;;;;;;6.93;4.05;;;;;;;;;;5032729;28;20041;-82
2022/07/10 01:04:11;;;;;;;5.57;3.97;;;;;;;;;;5032987;28;20025;-82
2022/07/10 01:06:37;;;;;;;6.50;4.22;;;;;;;;;;5037208;28;20029;-82
2022/07/10 01:09:02;;;;;;;5.95;4.50;;;;;;;;;;5041752;28;20073;-81
2022/07/10 01:11:28;;;;;;;6.78;4.32;;;;;;;;;;5031933;28;20132;-82
2022/07/10 01:13:53;;;;;;;5.13;4.00;;;;;;;;;;5031268;28;20029;-81
2022/07/10 01:16:19;;;;;;;6.30;4.28;;;;;;;;;;5030821;28;20029;-82
2022/07/10 01:18:44;;;;;;;4.97;4.22;;;;;;;;;;5032607;28;20029;-81
2022/07/10 01:21:32;;;;;;;8.45;4.63;;;;;;;;;;5044306;28;20033;-81
2022/07/10 01:23:58;;;;;;;6.20;4.60;;;;;;;;;;5031969;28;20044;-81
2022/07/10 01:26:23;;;;;;;5.85;4.78;;;;;;;;;;5037512;28;20107;-82
2022/07/10 01:28:49;;;;;;;5.18;4.18;;;;;;;;;;5050843;28;20041;-81
2022/07/10 01:31:14;;;;;;;8.07;5.07;;;;;;;;;;5050326;28;20479;-82
2022/07/10 01:33:40;;;;;;;5.78;4.80;;;;;;;;;;5051044;28;20086;-81
2022/07/10 01:36:06;;;;;;;10.68;4.93;;;;;;;;;;5037924;28;20026;-82
2022/07/10 01:38:31;;;;;;;7.35;5.68;;;;;;;;;;5024163;28;20138;-82
2022/07/10 01:40:57;;;;;;;6.57;5.88;;;;;;;;;;5049625;28;20029;-82
2022/07/10 01:43:22;;;;;;;6.40;5.80;;;;;;;;;;5050350;28;20017;-82
2022/07/10 01:45:48;;;;;;;6.90;6.30;;;;;;;;;;5051565;28;20094;-82
2022/07/10 01:48:14;;;;;;;7.60;6.90;;;;;;;;;;5043362;28;20037;-81
2022/07/10 01:50:39;;;;;;;9.63;7.35;;;;;;;;;;5044180;28;20029;-82
2022/07/10 01:53:05;;;;;;;8.40;7.55;;;;;;;;;;5055086;28;20519;-82
2022/07/10 01:55:31;;;;;;;7.25;6.55;;;;;;;;;;5053611;28;20429;-82
2022/07/10 01:57:57;;;;;;;8.85;7.90;;;;;;;;;;5054841;28;20036;-82
2022/07/10 02:00:26;;;;;;;9.60;7.13;;;;;;;;;;5041267;28;20082;-82
2022/07/10 02:05:37;;;;;;;11.05;8.85;;;;;;;;;;5040977;28;20057;-82
2022/07/10 02:08:03;;;;;;;10.52;9.05;;;;;;;;;;5036624;28;20079;-82
2022/07/10 02:10:29;;;;;;;12.95;8.95;;;;;;;;;;5038896;28;20082;-82
2022/07/10 02:12:55;;;;;;;8.75;7.85;;;;;;;;;;5035781;28;20488;-81
2022/07/10 02:15:21;;;;;;;10.00;8.20;;;;;;;;;;5034171;28;20037;-81
2022/07/10 02:17:47;;;;;;;10.20;8.00;;;;;;;;;;5014400;28;20109;-82
2022/07/10 02:20:12;;;;;;;9.80;8.80;;;;;;;;;;5013278;28;20041;-82
2022/07/10 02:22:38;;;;;;;10.70;9.48;;;;;;;;;;5034261;28;20025;-81
2022/07/10 02:25:03;;;;;;;9.95;9.05;;;;;;;;;;5017765;28;20103;-81
2022/07/10 02:27:29;;;;;;;12.48;10.00;;;;;;;;;;5033452;28;20025;-82
2022/07/10 02:29:54;;;;;;;12.00;9.93;;;;;;;;;;5046204;28;20029;-83
2022/07/10 02:32:20;;;;;;;11.50;10.30;;;;;;;;;;5041686;28;20025;-81
2022/07/10 02:34:45;;;;;;;11.10;9.73;;;;;;;;;;5052474;28;20033;-81
2022/07/10 02:37:11;;;;;;;11.20;10.05;;;;;;;;;;5052660;28;20025;-81
2022/07/10 02:39:36;;;;;;;12.77;10.55;;;;;;;;;;5052895;28;20037;-81
2022/07/10 02:42:02;;;;;;;11.32;10.23;;;;;;;;;;5041681;28;20592;-82
2022/07/10 02:44:29;;;;;;;10.50;9.43;;;;;;;;;;5035803;28;20037;-82
2022/07/10 02:46:54;;;;;;;10.85;9.75;;;;;;;;;;5053383;28;20020;-82
2022/07/10 02:49:20;;;;;;;10.68;9.68;;;;;;;;;;5052340;28;20036;-82
2022/07/10 02:51:45;;;;;;;10.93;9.93;;;;;;;;;;5035678;28;20068;-81
2022/07/10 02:54:11;;;;;;;10.63;9.45;;;;;;;;;;5034762;28;20384;-82
2022/07/10 02:56:36;;;;;;;11.32;9.85;;;;;;;;;;5052271;28;20044;-82
2022/07/10 02:59:02;;;;;;;11.82;10.57;;;;;;;;;;5050572;28;20518;-82
2022/07/10 03:01:27;;;;;;;10.82;9.73;;;;;;;;;;5053153;28;20521;-82
2022/07/10 03:03:53;;;;;;;10.73;9.73;;;;;;;;;;5051298;28;20495;-81
2022/07/10 03:06:18;;;;;;;10.80;9.43;;;;;;;;;;5051989;28;20058;-82
2022/07/10 03:08:44;;;;;;;11.40;10.05;;;;;;;;;;5050619;28;20427;-82
2022/07/10 03:11:09;;;;;;;12.10;10.02;;;;;;;;;;5040334;28;20081;-82
2022/07/10 03:13:35;;;;;;;13.43;9.65;;;;;;;;;;5035185;28;20044;-82
2022/07/10 03:16:00;;;;;;;10.23;9.23;;;;;;;;;;5036050;28;20028;-82
2022/07/10 03:18:26;;;;;;;12.60;9.98;;;;;;;;;;5053809;28;20563;-82
2022/07/10 03:20:51;;;;;;;10.48;9.38;;;;;;;;;;5052834;28;20048;-81
2022/07/10 03:23:17;;;;;;;12.10;9.07;;;;;;;;;;5053434;28;20029;-83
2022/07/10 03:25:42;;;;;;;11.02;9.90;;;;;;;;;;5053509;28;20100;-81
2022/07/10 03:28:08;;;;;;;10.52;9.43;;;;;;;;;;5052125;28;20041;-82
2022/07/10 03:30:33;;;;;;;9.35;8.48;;;;;;;;;;5051934;28;20025;-82
2022/07/10 03:32:59;;;;;;;9.75;8.80;;;;;;;;;;5039291;28;20069;-82
2022/07/10 03:35:25;;;;;;;10.65;9.65;;;;;;;;;;5032943;28;20017;-82
2022/07/10 03:37:51;;;;;;;10.93;9.73;;;;;;;;;;5031965;28;20124;-82
2022/07/10 03:40:16;;;;;;;9.50;8.45;;;;;;;;;;5033717;28;20113;-82
2022/07/10 03:42:42;;;;;;;10.25;8.98;;;;;;;;;;5033975;28;20033;-82
2022/07/10 03:45:07;;;;;;;9.98;8.98;;;;;;;;;;5034343;28;20079;-82
2022/07/10 03:47:33;;;;;;;9.75;8.85;;;;;;;;;;5034269;28;20045;-83
2022/07/10 03:49:58;;;;;;;11.07;9.80;;;;;;;;;;5034668;28;20037;-81
2022/07/10 03:52:24;;;;;;;10.25;9.25;;;;;;;;;;5033539;28;20063;-82
2022/07/10 03:54:49;;;;;;;10.75;9.75;;;;;;;;;;5013782;28;20014;-82
2022/07/10 03:59:59;;;;;;;11.00;8.68;;;;;;;;;;5022047;28;20037;-82
2022/07/10 04:02:24;;;;;;;10.70;9.63;;;;;;;;;;5033416;28;20021;-82
2022/07/10 04:04:50;;;;;;;13.18;9.95;;;;;;;;;;5034649;28;20041;-82
2022/07/10 04:07:16;;;;;;;11.32;9.95;;;;;;;;;;5035277;28;20451;-82
2022/07/10 04:09:41;;;;;;;12.88;9.45;;;;;;;;;;5013002;28;20504;-81
2022/07/10 04:12:07;;;;;;;11.07;9.73;;;;;;;;;;5012975;28;20049;-83
2022/07/10 04:14:33;;;;;;;11.35;10.23;;;;;;;;;;5051087;28;20053;-82
2022/07/10 04:16:58;;;;;;;12.13;9.50;;;;;;;;;;5052092;28;20117;-82
2022/07/10 04:19:24;;;;;;;12.50;11.23;;;;;;;;;;5052588;28;20029;-82
2022/07/10 04:21:49;;;;;;;13.48;9.98;;;;;;;;;;5051686;28;20048;-82
2022/07/10 04:24:15;;;;;;;10.77;9.48;;;;;;;;;;5034293;28;20045;-82
2022/07/10 04:26:40;;;;;;;12.52;8.63;;;;;;;;;;5050003;28;20057;-82
2022/07/10 04:29:06;;;;;;;9.90;8.50;;;;;;;;;;5051522;28;20033;-81
2022/07/10 04:31:31;;;;;;;9.23;8.30;;;;;;;;;;5051176;28;20024;-81
2022/07/10 04:33:57;;;;;;;9.75;7.82;;;;;;;;;;5017544;28;20029;-81
2022/07/10 04:36:23;;;;;;;9.60;8.25;;;;;;;;;;5048344;28;20051;-82
2022/07/10 04:38:48;;;;;;;9.38;8.20;;;;;;;;;;5050251;28;20079;-81
2022/07/10 04:41:14;;;;;;;9.48;7.55;;;;;;;;;;5048404;28;20031;-82
2022/07/10 04:43:39;;;;;;;10.93;8.07;;;;;;;;;;5050493;28;20553;-82
2022/07/10 04:46:06;;;;;;;9.98;8.95;;;;;;;;;;5049406;28;20481;-82
2022/07/10 04:48:32;;;;;;;10.40;9.32;;;;;;;;;;5042862;28;20493;-82
2022/07/10 04:50:57;;;;;;;9.55;8.55;;;;;;;;;;5042873;28;20022;-82
2022/07/10 04:53:23;;;;;;;8.18;7.38;;;;;;;;;;5032460;28;20033;-83
2022/07/10 04:55:48;;;;;;;9.65;7.72;;;;;;;;;;5046077;28;20022;-82
2022/07/10 04:58:14;;;;;;;9.05;7.38;;;;;;;;;;5031996;28;20067;-82
2022/07/10 05:00:39;;;;;;;11.95;7.30;;;;;;;;;;5047626;28;20053;-82
2022/07/10 05:03:05;;;;;;;8.05;7.22;;;;;;;;;;5048577;28;20048;-83
2022/07/10 05:05:30;;;;;;;9.98;7.55;;;;;;;;;;5046633;28;20025;-81
2022/07/10 05:07:56;;;;;;;7.85;7.13;;;;;;;;;;5049012;28;20119;-81
2022/07/10 05:10:22;;;;;;;10.23;7.07;;;;;;;;;;5034469;28;20045;-83
2022/07/10 05:12:48;;;;;;;10.32;7.18;;;;;;;;;;5032553;28;20041;-82
2022/07/10 05:15:13;;;;;;;8.15;7.30;;;;;;;;;;5031871;28;20032;-83
2022/07/10 05:17:39;;;;;;;10.50;8.63;;;;;;;;;;5032892;28;20476;-83
2022/07/10 05:20:04;;;;;;;10.57;6.78;;;;;;;;;;5031795;28;20034;-83
2022/07/10 05:22:30;;;;;;;7.70;6.90;;;;;;;;;;5032766;28;20400;-83
2022/07/10 05:24:55;;;;;;;9.02;7.25;;;;;;;;;;5032624;28;20484;-82
2022/07/10 05:27:21;;;;;;;8.65;7.05;;;;;;;;;;5014791;28;20411;-83
2022/07/10 05:29:46;;;;;;;7.82;6.47;;;;;;;;;;5033618;28;20033;-82
2022/07/10 05:32:12;;;;;;;6.72;6.07;;;;;;;;;;5032811;28;20209;-82
2022/07/10 05:34:38;;;;;;;7.20;6.25;;;;;;;;;;5033549;28;20025;-82
2022/07/10 05:37:03;;;;;;;8.07;6.35;;;;;;;;;;5012646;28;20041;-83
2022/07/10 05:39:29;;;;;;;11.75;7.20;;;;;;;;;;5027836;28;20055;-81
2022/07/10 05:41:55;;;;;;;10.43;7.18;;;;;;;;;;5031259;28;20060;-81
2022/07/10 05:44:21;;;;;;;12.52;10.70;;;;;;;;;;5031897;28;20152;-82
2022/07/10 05:46:46;;;;;;;12.05;7.65;;;;;;;;;;5030419;28;20503;-83
2022/07/10 05:49:12;;;;;;;10.77;7.10;;;;;;;;;;5013033;28;20079;-84
2022/07/10 05:51:37;;;;;;;9.40;7.70;;;;;;;;;;5014992;28;20033;-83
2022/07/10 05:54:03;;;;;;;8.05;7.13;;;;;;;;;;5031291;28;20025;-83
2022/07/10 05:56:29;;;;;;;8.50;6.28;;;;;;;;;;5031164;28;20114;-83
2022/07/10 05:58:55;;;;;;;10.52;7.85;;;;;;;;;;5013707;28;20107;-83
2022/07/10 06:01:21;;;;;;;8.77;7.22;;;;;;;;;;5033330;28;20037;-83
2022/07/10 06:03:46;;;;;;;8.25;6.00;;;;;;;;;;5033526;28;20603;-82
2022/07/10 06:06:15;;;;;;;9.18;6.32;;;;;;;;;;5033099;28;20038;-83
2022/07/10 06:08:40;;;;;;;6.80;5.97;;;;;;;;;;5015916;28;20073;-83
2022/07/10 06:11:06;;;;;;;8.30;6.03;;;;;;;;;;5031860;28;20455;-83
2022/07/10 06:13:31;;;;;;;10.40;5.63;;;;;;;;;;5031739;28;20038;-83
2022/07/10 06:15:57;;;;;;;8.68;6.20;;;;;;;;;;5030411;28;20037;-83
2022/07/10 06:18:23;;;;;;;6.55;5.55;;;;;;;;;;5031768;28;20121;-83
2022/07/10 06:20:48;;;;;;;9.30;5.45;;;;;;;;;;5030829;28;20033;-83
2022/07/10 06:23:13;;;;;;;8.82;6.18;;;;;;;;;;5033280;28;20037;-83
2022/07/10 06:25:39;;;;;;;8.38;5.47;;;;;;;;;;5031018;28;20040;-83
2022/07/10 06:28:04;;;;;;;8.77;5.72;;;;;;;;;;4998471;28;20029;-83
2022/07/10 06:30:30;;;;;;;9.20;5.88;;;;;;;;;;5032079;28;20049;-82
2022/07/10 06:32:55;;;;;;;7.00;5.55;;;;;;;;;;5032185;28;20434;-85
2022/07/10 06:35:21;;;;;;;8.00;5.35;;;;;;;;;;5011947;28;20535;-83
2022/07/10 06:37:46;;;;;;;7.03;5.03;;;;;;;;;;5027944;28;20171;-83
2022/07/10 06:40:15;;;;;;;11.02;5.50;;;;;;;;;;5035503;28;20365;-84
2022/07/10 06:42:41;;;;;;;8.20;5.50;;;;;;;;;;5036029;28;20037;-84
2022/07/10 06:45:09;;;;;;;6.57;5.07;;;;;;;;;;5023387;28;20041;-83
2022/07/10 06:50:19;;;;;;;8.52;5.47;;;;;;;;;;5021587;28;20037;-84
2022/07/10 06:52:44;;;;;;;7.97;5.40;;;;;;;;;;5036849;28;20029;-84
2022/07/10 06:55:10;;;;;;;9.05;5.22;;;;;;;;;;5036396;28;20030;-83
2022/07/10 06:57:35;;;;;;;7.53;6.15;;;;;;;;;;5035175;28;20078;-83
2022/07/10 07:00:01;;;;;;;8.20;5.22;;;;;;;;;;5015155;28;20037;-83
2022/07/10 07:02:27;;;;;;;7.75;5.13;;;;;;;;;;5035010;28;20025;-83
2022/07/10 07:04:52;;;;;;;7.90;5.30;;;;;;;;;;5035357;28;20492;-83
2022/07/10 07:07:17;;;;;;;9.30;4.88;;;;;;;;;;5035874;28;20415;-83
2022/07/10 07:09:44;;;;;;;8.55;5.15;;;;;;;;;;5034897;28;20137;-84
2022/07/10 07:12:10;;;;;;;6.00;4.88;;;;;;;;;;5035248;28;20037;-84
2022/07/10 07:14:35;;;;;;;5.95;4.93;;;;;;;;;;5044625;28;20033;-82
2022/07/10 07:17:06;;;;;;;8.93;5.05;;;;;;;;;;5052881;28;20636;-83
2022/07/10 07:23:09;;;;;;;8.55;4.90;;;;;;;;;;5044329;28;20040;-82
2022/07/10 07:25:01;;;;;;;7.45;5.60;;;;;;;;;;5034301;28;20175;-82
2022/07/10 07:27:27;;;;;;;9.45;5.18;;;;;;;;;;5016910;28;20580;-83
2022/07/10 07:29:52;;;;;;;6.60;5.20;;;;;;;;;;5033316;28;20037;-83
2022/07/10 07:32:18;;;;;;;7.88;5.75;;;;;;;;;;5013842;28;20112;-83
2022/07/10 07:34:43;;;;;;;8.43;6.20;;;;;;;;;;5031626;28;20443;-83
2022/07/10 07:37:09;;;;;;;9.18;6.47;;;;;;;;;;5044424;28;20120;-83
2022/07/10 07:39:34;;;;;;;9.63;6.32;;;;;;;;;;5049319;28;20074;-84
2022/07/10 07:41:59;;;;;;;9.38;6.53;;;;;;;;;;5052978;28;20028;-85
2022/07/10 07:44:25;;;;;;;10.20;7.10;;;;;;;;;;5053101;28;20100;-84
2022/07/10 07:46:50;;;;;;;11.13;6.93;;;;;;;;;;5052950;28;20044;-84
2022/07/10 07:49:16;;;;;;;10.45;6.45;;;;;;;;;;5034414;28;20037;-83
2022/07/10 07:51:41;;;;;;;9.65;6.45;;;;;;;;;;5035807;28;20036;-86
2022/07/10 07:54:07;;;;;;;9.05;5.90;;;;;;;;;;5052069;28;20040;-83
2022/07/10 07:56:32;;;;;;;9.95;5.70;;;;;;;;;;5052600;28;20024;-83
2022/07/10 07:58:58;;;;;;;8.35;5.28;;;;;;;;;;5052706;28;20029;-85
2022/07/10 08:01:23;;;;;;;7.47;5.43;;;;;;;;;;5036041;28;20047;-85
2022/07/10 08:03:49;;;;;;;8.38;5.18;;;;;;;;;;5051497;28;20037;-87
2022/07/10 08:06:14;;;;;;;9.05;5.25;;;;;;;;;;5052901;28;20035;-83
2022/07/10 08:08:40;;;;;;;8.73;5.57;;;;;;;;;;5021739;28;20531;-85
2022/07/10 08:11:05;;;;;;;6.90;5.35;;;;;;;;;;5040925;28;20041;-82
2022/07/10 08:13:32;;;;;;;5.93;4.80;;;;;;;;;;5034956;28;20079;-85
2022/07/10 08:15:57;;;;;;;7.90;5.00;;;;;;;;;;5052237;28;20143;-84
2022/07/10 08:18:23;;;;;;;8.95;4.72;;;;;;;;;;5038650;28;20061;-83
2022/07/10 08:20:49;;;;;;;6.55;5.10;;;;;;;;;;5013012;28;20030;-83
2022/07/10 08:23:14;;;;;;;8.85;5.53;;;;;;;;;;5027966;28;20120;-81
2022/07/10 08:25:40;;;;;;;9.15;5.65;;;;;;;;;;5033501;28;20021;-82
2022/07/10 08:28:05;;;;;;;9.27;5.85;;;;;;;;;;5032221;28;20034;-82
2022/07/10 08:30:31;;;;;;;7.60;5.50;;;;;;;;;;5032344;28;20025;-82
2022/07/10 08:32:57;;;;;;;7.72;5.30;;;;;;;;;;5032106;28;20076;-83
2022/07/10 08:35:22;;;;;;;10.13;5.45;;;;;;;;;;5033359;28;20028;-83
2022/07/10 08:37:48;;;;;;;6.88;5.43;;;;;;;;;;5016516;28;20038;-84
2022/07/10 08:40:13;;;;;;;7.90;5.90;;;;;;;;;;5018687;28;20021;-84
2022/07/10 08:42:40;;;;;;;6.00;4.82;;;;;;;;;;5038847;28;20451;-83
2022/07/10 08:45:06;;;;;;;9.40;5.32;;;;;;;;;;5032991;28;20033;-83
2022/07/10 08:47:35;;;;;;;8.45;5.80;;;;;;;;;;5012225;28;20508;-82
2022/07/10 08:50:00;;;;;;;7.00;5.07;;;;;;;;;;5030535;28;20476;-84
2022/07/10 08:52:33;;;;;;;6.22;4.60;;;;;;;;;;5026226;28;20139;-83
2022/07/10 08:54:59;;;;;;;6.45;5.15;;;;;;;;;;5032432;28;20061;-83
2022/07/10 08:57:24;;;;;;;7.40;4.80;;;;;;;;;;5032527;28;20049;-83
2022/07/10 08:59:50;;;;;;;8.18;4.57;;;;;;;;;;5015519;28;20037;-84
2022/07/10 09:02:15;;;;;;;7.20;4.78;;;;;;;;;;5031369;28;20033;-85
2022/07/10 09:04:41;;;;;;;8.43;4.95;;;;;;;;;;5033051;28;20040;-83
2022/07/10 09:07:06;;;;;;;8.55;5.20;;;;;;;;;;5031476;28;20025;-84
2022/07/10 09:09:32;;;;;;;7.55;4.95;;;;;;;;;;5032645;28;20092;-82
2022/07/10 09:11:57;;;;;;;8.20;5.13;;;;;;;;;;5044461;28;20033;-83
2022/07/10 09:14:25;;;;;;;7.75;4.40;;;;;;;;;;5032711;28;20475;-84
2022/07/10 09:16:50;;;;;;;8.23;4.93;;;;;;;;;;5031125;28;20053;-83
2022/07/10 09:19:25;;;;;;;7.45;4.20;;;;;;;;;;5031997;28;20523;-83
2022/07/10 09:21:51;;;;;;;6.18;4.30;;;;;;;;;;5032449;28;20500;-82
2022/07/10 09:24:19;;;;;;;7.03;5.03;;;;;;;;;;5011391;28;20032;-84
2022/07/10 09:27:04;;;;;;;6.78;4.07;;;;;;;;;;5043033;28;20064;-82
2022/07/10 09:29:30;;;;;;;7.38;4.38;;;;;;;;;;5050202;28;20088;-84
2022/07/10 09:31:56;;;;;;;4.75;3.75;;;;;;;;;;5032279;28;20136;-83
2022/07/10 09:34:35;;;;;;;6.75;4.65;;;;;;;;;;5043098;28;20043;-84
2022/07/10 09:37:16;;;;;;;6.97;4.68;;;;;;;;;;5002305;28;20025;-83
2022/07/10 09:39:50;;;;;;;6.00;3.90;;;;;;;;;;5033210;28;20037;-85
2022/07/10 09:42:36;;;;;;;4.80;3.42;;;;;;;;;;5040576;28;20042;-84
2022/07/10 09:45:10;;;;;;;5.63;4.10;;;;;;;;;;5030804;28;20120;-82
2022/07/10 09:47:36;;;;;;;5.30;3.87;;;;;;;;;;5032198;28;20092;-84
2022/07/10 09:50:02;;;;;;;4.70;3.63;;;;;;;;;;5032190;28;20029;-83
2022/07/10 09:52:27;;;;;;;5.57;3.72;;;;;;;;;;5031920;28;20446;-83
2022/07/10 09:54:53;;;;;;;5.88;3.90;;;;;;;;;;5014474;28;20013;-84
2022/07/10 09:57:18;;;;;;;6.43;4.15;;;;;;;;;;5031018;28;20037;-84
2022/07/10 09:59:45;;;;;;;4.47;3.40;;;;;;;;;;5031278;28;20380;-84
2022/07/10 10:02:11;;;;;;;7.13;3.78;;;;;;;;;;5032693;28;20037;-84
2022/07/10 10:04:36;;;;;;;4.60;3.50;;;;;;;;;;5032163;28;20044;-83
2022/07/10 10:07:02;;;;;;;6.13;3.55;;;;;;;;;;5033648;28;20065;-84
2022/07/10 10:09:45;;;;;;;5.15;3.50;;;;;;;;;;4995106;28;20050;-83
2022/07/10 10:12:17;;;;;;;6.13;3.53;;;;;;;;;;5032209;28;20111;-83
2022/07/10 10:14:43;;;;;;;4.95;3.13;;;;;;;;;;5054137;28;20033;-85
2022/07/10 10:17:08;;;;;;;5.00;3.60;;;;;;;;;;5042066;28;20475;-83
2022/07/10 10:22:18;;;;;;;5.05;3.63;;;;;;;;;;5049091;28;20030;-84
2022/07/10 10:24:44;;;;;;;5.22;3.63;;;;;;;;;;5036100;28;20499;-82
2022/07/10 10:27:10;;;;;;;4.68;3.38;;;;;;;;;;5034950;28;20033;-85
2022/07/10 10:29:35;;;;;;;6.97;3.92;;;;;;;;;;5036523;28;20032;-83
2022/07/10 10:32:01;;;;;;;7.63;3.70;;;;;;;;;;5035841;28;20063;-85
2022/07/10 10:34:55;;;;;;;5.50;3.45;;;;;;;;;;5035547;28;20022;-85
2022/07/10 10:37:27;;;;;;;4.40;3.00;;;;;;;;;;5035852;28;20089;-84
2022/07/10 10:39:55;;;;;;;4.90;3.20;;;;;;;;;;5038344;28;20021;-82
2022/07/10 10:42:34;;;;;;;3.92;2.70;;;;;;;;;;5036067;28;20079;-84
2022/07/10 10:45:18;;;;;;;2.78;2.35;;;;;;;;;;5020285;28;20037;-86
2022/07/10 10:48:04;;;;;;;3.55;2.70;;;;;;;;;;5037511;28;20057;-83
2022/07/10 10:50:40;;;;;;;4.40;2.70;;;;;;;;;;5015566;28;20501;-84
2022/07/10 10:53:05;;;;;;;;;;;;;;;;;;5036371;28;20041;-83
2022/07/10 10:55:31;;;;;;;6.20;3.03;;;;;;;;;;5036339;28;19909;-84
2022/07/10 10:58:14;;;;;;;4.00;2.92;;;;;;;;;;5037377;28;20119;-84
2022/07/10 11:00:42;;;;;;;4.28;2.45;;;;;;;;;;5036667;28;20064;-84
2022/07/10 11:03:15;;;;;;;4.78;2.60;;;;;;;;;;5034718;28;20032;-85
2022/07/10 11:05:43;;;;;;;5.43;2.50;;;;;;;;;;5035567;28;20050;-84
2022/07/10 11:08:09;;;;;;;3.65;2.50;;;;;;;;;;5018215;28;20053;-84
2022/07/10 11:10:38;;;;;;;5.15;2.50;;;;;;;;;;5034464;28;20060;-84
2022/07/10 11:13:13;;;;;;;4.07;2.70;;;;;;;;;;5033712;28;20042;-85
2022/07/10 11:15:40;;;;;;;4.68;2.40;;;;;;;;;;5033954;28;20124;-83
2022/07/10 11:18:08;;;;;;;5.07;2.33;;;;;;;;;;5034906;28;20048;-84
2022/07/10 11:20:34;;;;;;;3.55;2.50;;;;;;;;;;5033524;28;20033;-84
2022/07/10 11:23:12;;;;;;;3.83;2.60;;;;;;;;;;5032753;28;20107;-85
2022/07/10 11:26:23;;;;;;;6.25;2.67;;;;;;;;;;5033154;28;20535;-83
2022/07/10 11:28:54;;;;;;;3.47;2.42;;;;;;;;;;5031958;28;20033;-83
2022/07/10 11:31:21;;;;;;;5.32;2.80;;;;;;;;;;5017058;28;20075;-83
2022/07/10 11:33:48;;;;;;;3.38;2.20;;;;;;;;;;5035103;28;20022;-83
2022/07/10 11:36:17;;;;;;;4.22;2.47;;;;;;;;;;5032858;28;20159;-84
2022/07/10 11:38:42;;;;;;;4.13;2.42;;;;;;;;;;5040946;28;20020;-83
2022/07/10 11:41:23;;;;;;;3.40;2.30;;;;;;;;;;5040146;28;20488;-85
2022/07/10 11:43:49;;;;;;;4.25;2.70;;;;;;;;;;5043270;28;20025;-85
2022/07/10 11:46:15;;;;;;;3.75;2.60;;;;;;;;;;5033532;28;20017;-83
2022/07/10 11:48:40;;;;;;;4.85;2.53;;;;;;;;;;5012733;28;20502;-83
2022/07/10 11:51:24;;;;;;;3.92;2.45;;;;;;;;;;5045228;28;20107;-84
2022/07/10 11:53:54;;;;;;;7.10;2.67;;;;;;;;;;5054069;28;20048;-83
2022/07/10 11:56:19;;;;;;;4.22;2.58;;;;;;;;;;5019593;28;20029;-83
2022/07/10 11:58:53;;;;;;;3.30;2.40;;;;;;;;;;5035745;28;20469;-83
2022/07/10 12:01:18;;;;;;;4.20;2.70;;;;;;;;;;5035940;28;20041;-84
2022/07/10 12:03:44;;;;;;;5.57;2.75;;;;;;;;;;5051129;28;20033;-84
2022/07/10 12:06:10;;;;;;;4.25;3.00;;;;;;;;;;5053281;28;20033;-84
2022/07/10 12:08:42;;;;;;;4.63;2.70;;;;;;;;;;5034378;28;20052;-84
2022/07/10 12:11:12;;;;;;;5.22;2.83;;;;;;;;;;5034933;28;20052;-84
2022/07/10 12:13:37;;;;;;;5.35;2.40;;;;;;;;;;5047823;28;20025;-84
2022/07/10 12:16:03;;;;;;;5.80;2.50;;;;;;;;;;5052514;28;20025;-84
2022/07/10 12:18:31;;;;;;;4.57;2.35;;;;;;;;;;5019588;28;20026;-83
2022/07/10 12:20:58;;;;;;;3.88;2.47;;;;;;;;;;5053349;28;20538;-84
2022/07/10 12:23:24;;;;;;;5.25;2.60;;;;;;;;;;5051913;28;20107;-84
2022/07/10 12:25:49;;;;;;;4.53;2.50;;;;;;;;;;5035433;28;20037;-83
2022/07/10 12:28:15;;;;;;;4.95;2.60;;;;;;;;;;5051113;28;20047;-85
2022/07/10 12:30:40;;;;;;;3.17;2.30;;;;;;;;;;5035609;28;20029;-84
2022/07/10 12:33:18;;;;;;;5.30;2.70;;;;;;;;;;5051370;28;20036;-84
2022/07/10 12:35:51;;;;;;;6.25;2.60;;;;;;;;;;5052392;28;20487;-84
2022/07/10 12:38:17;;;;;;;5.18;2.70;;;;;;;;;;5051654;28;20020;-82
2022/07/10 12:40:42;;;;;;;4.50;2.53;;;;;;;;;;5035391;28;20016;-83
2022/07/10 12:43:11;;;;;;;4.13;2.58;;;;;;;;;;5050622;28;20068;-85
2022/07/10 12:45:36;;;;;;;4.18;2.55;;;;;;;;;;5018918;28;20041;-83
2022/07/10 12:48:05;;;;;;;4.22;2.60;;;;;;;;;;5051367;28;20070;-84
2022/07/10 12:50:31;;;;;;;3.88;2.67;;;;;;;;;;5023845;28;20078;-84
2022/07/10 12:53:09;;;;;;;4.82;2.90;;;;;;;;;;5032717;28;20045;-82
2022/07/10 12:55:35;;;;;;;5.10;2.78;;;;;;;;;;5051719;28;20033;-83
2022/07/10 12:58:08;;;;;;;5.25;2.63;;;;;;;;;;5034896;28;20020;-83
2022/07/10 13:00:35;;;;;;;4.80;3.20;;;;;;;;;;5035053;28;20040;-85
2022/07/10 13:03:10;;;;;;;5.00;2.35;;;;;;;;;;5051397;28;20032;-83
2022/07/10 13:05:38;;;;;;;4.32;2.50;;;;;;;;;;5050548;28;20037;-83
2022/07/10 13:08:16;;;;;;;5.38;2.53;;;;;;;;;;5051621;28;20098;-83
2022/07/10 13:10:41;;;;;;;3.70;2.55;;;;;;;;;;5033550;28;20037;-83
2022/07/10 13:13:07;;;;;;;8.00;2.80;;;;;;;;;;5033132;28;20044;-84
2022/07/10 13:15:39;;;;;;;5.57;2.50;;;;;;;;;;5015107;28;20079;-83
2022/07/10 13:18:05;;;;;;;4.20;2.45;;;;;;;;;;5032868;28;20447;-84
2022/07/10 13:20:30;;;;;;;5.13;2.75;;;;;;;;;;5032813;28;20013;-84
2022/07/10 13:22:56;;;;;;;3.75;2.63;;;;;;;;;;5032622;28;20092;-84
2022/07/10 13:25:21;;;;;;;4.10;2.75;;;;;;;;;;5015639;28;20035;-84
2022/07/10 13:27:47;;;;;;;3.67;2.60;;;;;;;;;;5030985;28;20546;-83
2022/07/10 13:30:13;;;;;;;4.00;2.67;;;;;;;;;;5031372;28;20036;-84
2022/07/10 13:32:38;;;;;;;5.43;2.92;;;;;;;;;;4995936;28;20034;-83
2022/07/10 13:35:04;;;;;;;3.17;2.30;;;;;;;;;;5031031;28;20526;-84
2022/07/10 13:37:29;;;;;;;4.38;2.60;;;;;;;;;;5032083;28;20507;-83
2022/07/10 13:39:55;;;;;;;5.53;2.53;;;;;;;;;;5012915;28;20025;-84
2022/07/10 13:42:20;;;;;;;4.03;2.60;;;;;;;;;;5026091;28;20041;-83
2022/07/10 13:44:46;;;;;;;4.13;2.70;;;;;;;;;;5032696;28;20025;-83
2022/07/10 13:47:11;;;;;;;4.28;2.95;;;;;;;;;;5011376;28;20040;-83
2022/07/10 13:49:37;;;;;;;5.50;3.00;;;;;;;;;;5029923;28;20121;-83
2022/07/10 13:52:02;;;;;;;4.43;2.63;;;;;;;;;;5030445;28;20120;-84
2022/07/10 13:54:28;;;;;;;6.70;2.67;;;;;;;;;;5047574;28;20056;-83
2022/07/10 13:56:53;;;;;;;4.55;2.80;;;;;;;;;;5033859;28;20057;-84
2022/07/10 13:59:19;;;;;;;5.93;2.85;;;;;;;;;;5034770;28;20026;-83
2022/07/10 14:01:44;;;;;;;5.53;3.00;;;;;;;;;;5030871;28;20056;-83
2022/07/10 14:04:10;;;;;;;6.95;3.10;;;;;;;;;;5044976;28;20546;-84
2022/07/10 14:06:35;;;;;;;5.40;2.88;;;;;;;;;;5011188;28;20435;-83
2022/07/10 14:09:00;;;;;;;7.50;3.05;;;;;;;;;;5030083;28;20053;-83
2022/07/10 14:11:26;;;;;;;3.80;2.75;;;;;;;;;;5013847;28;20045;-82
2022/07/10 14:13:51;;;;;;;6.38;2.80;;;;;;;;;;5044819;28;20083;-84
2022/07/10 14:16:17;;;;;;;5.15;3.13;;;;;;;;;;5011556;28;20041;-83
2022/07/10 14:18:44;;;;;;;4.85;2.83;;;;;;;;;;5028432;28;20459;-84
2022/07/10 14:21:11;;;;;;;7.47;3.20;;;;;;;;;;5031812;28;20408;-84
2022/07/10 14:23:41;;;;;;;5.03;3.00;;;;;;;;;;5030834;28;20128;-83
2022/07/10 14:26:07;;;;;;;4.28;3.10;;;;;;;;;;5030532;28;20117;-83
2022/07/10 14:28:34;;;;;;;5.47;3.20;;;;;;;;;;5032398;28;20120;-81
2022/07/10 14:31:03;;;;;;;5.20;3.67;;;;;;;;;;5013641;28;20048;-83
2022/07/10 14:33:28;;;;;;;3.72;3.22;;;;;;;;;;5011105;28;20126;-83
2022/07/10 14:35:54;;;;;;;5.47;3.20;;;;;;;;;;5023826;28;20113;-83
2022/07/10 14:38:19;;;;;;;6.38;3.38;;;;;;;;;;5030780;28;20312;-85
2022/07/10 14:40:45;;;;;;;5.90;3.40;;;;;;;;;;5030982;28;20597;-83
2022/07/10 14:43:10;;;;;;;5.75;3.40;;;;;;;;;;5031466;28;20037;-84
2022/07/10 14:45:36;;;;;;;4.57;3.22;;;;;;;;;;5031632;28;20129;-83
2022/07/10 14:48:01;;;;;;;4.90;3.72;;;;;;;;;;5031511;28;20504;-82
2022/07/10 14:50:27;;;;;;;10.00;5.22;;;;;;;;;;5025164;28;20047;-84
2022/07/10 14:52:52;;;;;;;5.78;4.00;;;;;;;;;;5015286;28;20033;-85